Nearby METAR Reports

 

KDFW - Dallas/Ft Worth, Texas, USA
Distance from station: SSE 10mi, 16km
Updated: Sat, 18-Aug-2018 9:53pm CDT
Light rain, Overcast
Light rain, Overcast
 Wind from calm
Wind: Calm
Temperature: 77°F , 25°C
Dew Point: 72°F , 22°C
Humidity: 83%
Barometer: 29.89 inHg , 1012.2 hPa
Summary: Light rain
Clouds: Overcast
Visibility: 10 miles , 16 km
Cloud details: Few Clouds 7000 ft
Mostly cloudy 12000 ft
Overcast 25000 ft
2018/08/19 02:53 KDFW 190253Z 00000KT 10SM -RA FEW070 BKN120 OVC250 25/22 A2989 RMK AO2 TSE33 SLP112 TS DSIPTD P0001 60005 T02500217 51008 $
KDTO - Denton, Texas, USA
Distance from station: NNW 13mi, 21km
Updated: Sat, 18-Aug-2018 9:53pm CDT
Clear
Clear
 Wind from NNE
Wind: NNE 6 mph , 9 km/h
Temperature: 73°F , 23°C
Dew Point: 72°F , 22°C
Humidity: 94%
Barometer: 29.90 inHg , 1012.5 hPa
Clouds: Clear
Visibility: 10 miles , 16 km
2018/08/19 02:53 KDTO 190253Z 03005KT 10SM CLR 23/22 A2990 RMK AO2 RAE0158 SLP116 P0000 60007 T02330217 50002
 
KAFW - Ft Worth/Allianc, Texas, USA
Distance from station: WSW 14mi, 22km
Updated: Sat, 18-Aug-2018 9:53pm CDT
Overcast
Overcast
 Wind from NE
Wind: NE 3 mph , 6 km/h
Temperature: 79°F , 26°C
Dew Point: 72°F , 22°C
Humidity: 79%
Barometer: 29.89 inHg , 1012.2 hPa
Clouds: Overcast
Visibility: 10 miles , 16 km
Cloud details: Mostly cloudy 12000 ft
Mostly cloudy 16000 ft
Overcast 25000 ft
2018/08/19 02:53 KAFW 190253Z 05003KT 10SM BKN120 BKN160 OVC250 26/22 A2989 RMK AO2 RAE41 TSE03 SLP107 TS MOV E P0001 60002 T02610222 50002
KADS - Dallas/Addison, Texas, USA
Distance from station: ESE 17mi, 27km
Updated: Sat, 18-Aug-2018 10:15pm CDT
Rain, Overcast
Rain, Overcast
 Wind from E
Wind: E 3 mph , 6 km/h
Temperature: 75°F , 24°C
Dew Point: 72°F , 22°C
Humidity: 89%
Barometer: 29.93 inHg , 1013.5 hPa
Summary: Rain
Clouds: Overcast
Visibility: 10 miles , 16 km
Cloud details: Partly cloudy 8000 ft
Overcast 9000 ft
2018/08/19 03:15 KADS 190315Z AUTO 08003KT 10SM RA SCT080 OVC090 24/22 A2993 RMK AO2 P0001 T02420219
 
KDAL - Dallas/Love Fld, Texas, USA
Distance from station: SE 19mi, 30km
Updated: Sat, 18-Aug-2018 9:53pm CDT
Light rain, Overcast
Light rain, Overcast
 Wind from SSE
Wind: SSE 3 mph , 6 km/h
Temperature: 79°F , 26°C
Dew Point: 73°F , 23°C
Humidity: 84%
Barometer: 29.90 inHg , 1012.5 hPa
Summary: Light rain
Clouds: Overcast
Visibility: 10 miles , 16 km
Cloud details: Partly cloudy 9000 ft
Mostly cloudy 12000 ft
Overcast 15000 ft
2018/08/19 02:53 KDAL 190253Z 15003KT 10SM -RA SCT090 BKN120 OVC150 26/23 A2990 RMK AO2 TSE34 SLP117 TS MOVD E P0002 60031 T02610228 52013
KFTW - Fort Worth, Texas, USA
Distance from station: SW 21mi, 34km
Updated: Sat, 18-Aug-2018 9:53pm CDT
Mostly cloudy
Mostly cloudy
 Wind from calm
Wind: Calm
Temperature: 79°F , 26°C
Dew Point: 73°F , 23°C
Humidity: 84%
Barometer: 29.90 inHg , 1012.5 hPa
Clouds: Mostly cloudy
Visibility: 10 miles , 16 km
Cloud details: Few Clouds 6500 ft
Partly cloudy 9500 ft
Mostly cloudy 11000 ft
2018/08/19 02:53 KFTW 190253Z AUTO 00000KT 10SM FEW065 SCT095 BKN110 26/23 A2990 RMK AO2 RAE49 SLP113 P0001 60001 T02560233 51007
 
KGPM - Grand Prairie, Texas, USA
Distance from station: S 23mi, 37km
Updated: Sat, 18-Aug-2018 10:15pm CDT
Clear
Clear
 Wind from NNE
Wind: NNE 3 mph , 6 km/h
Temperature: 79°F , 26°C
Dew Point: 72°F , 22°C
Humidity: 79%
Barometer: 29.93 inHg , 1013.5 hPa
Clouds: Clear
Visibility: 10 miles , 16 km
2018/08/19 03:15 KGPM 190315Z AUTO 02003KT 10SM CLR 26/22 A2993 RMK AO2 P0001 T02570219
KGKY - Arlington, Texas, USA
Distance from station: S 25mi, 41km
Updated: Sat, 18-Aug-2018 9:53pm CDT
Light rain, Few clouds
Light rain, Few clouds
 Wind from W
Wind: W 3 mph , 6 km/h
Temperature: 79°F , 26°C
Dew Point: 75°F , 24°C
Humidity: 89%
Barometer: 29.91 inHg , 1012.9 hPa
Summary: Light rain
Clouds: Few Clouds
Visibility: 10 miles , 16 km
Cloud details: Few Clouds 11000 ft
2018/08/19 02:53 KGKY 190253Z AUTO 27003KT 10SM -RA FEW110 26/24 A2991 RMK AO2 RAB44 SLP117 P0000 60001 T02610244 53016